Accueil
METAR-TAF:

METAR-TAF

Aéroports :

Aéroport de Jerez

Jerez de la Frontera, Espagne

latitude: 36-45N, longitude: 006-04W, altitude: 27 m

Observation

Le bulletin a été fait il y a 13 minutes, à 23:00 UTC
Vent 2 kt de direction variable
Température 9°C
Humidité 81%
Pression 1024 hPa
Visibilité 10 km ou plus
pas de nuages en-dessous de 1500 mètres et pas de cumulonimbus.

METAR: LEJR 262300Z AUTO VRB02KT CAVOK 09/06 Q1024

Heure: 00:13 (23:13 UTC)

Prévision

Le bulletin a été fait il y a 6 heures et 13 minutes, à 17:00 UTC
Prévision valable du 26 à 18 UTC au 27 à 18 UTC
Vent 7 kt de nord-ouest
Visibilité 10 km ou plus
pas de nuages en-dessous de 1500 mètres et pas de cumulonimbus.
Evoluant progressivement
du 27 à 08 UTC au 27 à 11 UTC
Vent 12 kt de nord/nord-est

TAF: LEJR 261700Z 2618/2718 31007KT CAVOK TX21/2715Z TN05/2706Z BECMG 2708/2711 02012KT

Observations et prévisions météorologiques de plus de 4000 aéroports (messages METAR et TAF).

Les stations disponibles sont représentées par des disques jaunes et rouges sur la carte.

Passer la souris dessus pour voir le nom de la station.

Cliquer dessus pour voir les observations et prévisions météorologiques.

Pour changer de carte: cliquez sur les boutons verts avec une croix noire pour zoomer, sur le bouton vert avec un tiret pour effectuer un zoom arrière, ou sur les flèches vertes pour les cartes adjacentes.


METAR-TAF: